sensor_id;sensor_type;location;lat;lon;timestamp;P1;durP1;ratioP1;P2;durP2;ratioP2
28427;SDS011;15662;49.128;8.520;2023-03-24T00:01:16;2.17;;;1.75;;
28427;SDS011;15662;49.128;8.520;2023-03-24T00:03:45;1.52;;;1.45;;
28427;SDS011;15662;49.128;8.520;2023-03-24T00:06:15;1.65;;;1.50;;
28427;SDS011;15662;49.128;8.520;2023-03-24T00:08:44;2.13;;;1.75;;
28427;SDS011;15662;49.128;8.520;2023-03-24T00:11:14;2.13;;;1.58;;
28427;SDS011;15662;49.128;8.520;2023-03-24T00:13:44;1.98;;;1.60;;
28427;SDS011;15662;49.128;8.520;2023-03-24T00:16:16;1.92;;;1.60;;
28427;SDS011;15662;49.128;8.520;2023-03-24T00:18:46;1.80;;;1.70;;
28427;SDS011;15662;49.128;8.520;2023-03-24T00:21:20;1.63;;;1.52;;
28427;SDS011;15662;49.128;8.520;2023-03-24T00:23:51;1.73;;;1.63;;
28427;SDS011;15662;49.128;8.520;2023-03-24T00:26:21;1.45;;;1.30;;
28427;SDS011;15662;49.128;8.520;2023-03-24T00:28:51;1.40;;;1.30;;
28427;SDS011;15662;49.128;8.520;2023-03-24T00:31:21;1.60;;;1.50;;
28427;SDS011;15662;49.128;8.520;2023-03-24T00:33:50;1.52;;;1.42;;
28427;SDS011;15662;49.128;8.520;2023-03-24T00:36:20;1.58;;;1.42;;
28427;SDS011;15662;49.128;8.520;2023-03-24T00:38:52;1.60;;;1.40;;
28427;SDS011;15662;49.128;8.520;2023-03-24T00:41:20;1.52;;;1.42;;
28427;SDS011;15662;49.128;8.520;2023-03-24T00:43:52;1.70;;;1.60;;
28427;SDS011;15662;49.128;8.520;2023-03-24T00:46:23;1.58;;;1.40;;
28427;SDS011;15662;49.128;8.520;2023-03-24T00:48:58;1.38;;;1.35;;
28427;SDS011;15662;49.128;8.520;2023-03-24T00:51:37;1.60;;;1.50;;
28427;SDS011;15662;49.128;8.520;2023-03-24T00:54:09;1.95;;;1.50;;
28427;SDS011;15662;49.128;8.520;2023-03-24T00:56:39;1.67;;;1.58;;
28427;SDS011;15662;49.128;8.520;2023-03-24T00:59:09;1.88;;;1.55;;
28427;SDS011;15662;49.128;8.520;2023-03-24T01:01:39;2.05;;;1.30;;
28427;SDS011;15662;49.128;8.520;2023-03-24T01:04:09;1.60;;;1.50;;
28427;SDS011;15662;49.128;8.520;2023-03-24T01:06:37;1.80;;;1.30;;
28427;SDS011;15662;49.128;8.520;2023-03-24T01:09:07;1.65;;;1.55;;
28427;SDS011;15662;49.128;8.520;2023-03-24T01:11:37;3.42;;;1.30;;
28427;SDS011;15662;49.128;8.520;2023-03-24T01:14:08;1.77;;;1.50;;
28427;SDS011;15662;49.128;8.520;2023-03-24T01:16:37;1.63;;;1.50;;
28427;SDS011;15662;49.128;8.520;2023-03-24T01:19:05;2.38;;;1.60;;
28427;SDS011;15662;49.128;8.520;2023-03-24T01:21:36;1.70;;;1.60;;
28427;SDS011;15662;49.128;8.520;2023-03-24T01:24:05;1.63;;;1.48;;
28427;SDS011;15662;49.128;8.520;2023-03-24T01:26:34;1.77;;;1.55;;
28427;SDS011;15662;49.128;8.520;2023-03-24T01:29:02;2.08;;;1.50;;
28427;SDS011;15662;49.128;8.520;2023-03-24T01:31:30;1.60;;;1.50;;
28427;SDS011;15662;49.128;8.520;2023-03-24T01:33:58;2.30;;;1.63;;
28427;SDS011;15662;49.128;8.520;2023-03-24T01:36:26;1.92;;;1.83;;
28427;SDS011;15662;49.128;8.520;2023-03-24T01:38:54;1.67;;;1.55;;
28427;SDS011;15662;49.128;8.520;2023-03-24T01:41:25;2.05;;;1.55;;
28427;SDS011;15662;49.128;8.520;2023-03-24T01:43:58;2.35;;;2.15;;
28427;SDS011;15662;49.128;8.520;2023-03-24T01:46:26;3.83;;;2.25;;
28427;SDS011;15662;49.128;8.520;2023-03-24T01:48:57;3.05;;;2.30;;
28427;SDS011;15662;49.128;8.520;2023-03-24T01:51:38;2.17;;;1.80;;
28427;SDS011;15662;49.128;8.520;2023-03-24T01:54:24;1.60;;;1.50;;
28427;SDS011;15662;49.128;8.520;2023-03-24T01:57:12;3.33;;;1.38;;
28427;SDS011;15662;49.128;8.520;2023-03-24T02:00:02;2.28;;;1.38;;
28427;SDS011;15662;49.128;8.520;2023-03-24T02:03:15;1.30;;;1.25;;
28427;SDS011;15662;49.128;8.520;2023-03-24T02:05:52;1.70;;;1.60;;
28427;SDS011;15662;49.128;8.520;2023-03-24T02:08:29;1.48;;;1.35;;
28427;SDS011;15662;49.128;8.520;2023-03-24T02:11:07;3.22;;;1.40;;
28427;SDS011;15662;49.128;8.520;2023-03-24T02:13:44;2.00;;;1.33;;
28427;SDS011;15662;49.128;8.520;2023-03-24T02:19:13;1.55;;;1.30;;
28427;SDS011;15662;49.128;8.520;2023-03-24T02:42:23;4.25;;;1.90;;
28427;SDS011;15662;49.128;8.520;2023-03-24T02:45:34;2.90;;;1.77;;
28427;SDS011;15662;49.128;8.520;2023-03-24T02:57:07;1.58;;;1.45;;
28427;SDS011;15662;49.128;8.520;2023-03-24T03:03:12;1.60;;;1.50;;
28427;SDS011;15662;49.128;8.520;2023-03-24T03:06:17;1.50;;;1.40;;
28427;SDS011;15662;49.128;8.520;2023-03-24T03:09:00;1.85;;;1.75;;
28427;SDS011;15662;49.128;8.520;2023-03-24T03:11:34;1.52;;;1.42;;
28427;SDS011;15662;49.128;8.520;2023-03-24T03:14:14;2.00;;;1.60;;
28427;SDS011;15662;49.128;8.520;2023-03-24T03:16:50;1.60;;;1.45;;
28427;SDS011;15662;49.128;8.520;2023-03-24T03:19:29;4.43;;;1.80;;
28427;SDS011;15662;49.128;8.520;2023-03-24T03:22:14;2.05;;;1.80;;
28427;SDS011;15662;49.128;8.520;2023-03-24T03:24:48;2.22;;;1.70;;
28427;SDS011;15662;49.128;8.520;2023-03-24T03:27:21;2.50;;;2.30;;
28427;SDS011;15662;49.128;8.520;2023-03-24T03:29:59;2.97;;;2.40;;
28427;SDS011;15662;49.128;8.520;2023-03-24T03:32:32;2.08;;;1.95;;
28427;SDS011;15662;49.128;8.520;2023-03-24T03:35:13;3.03;;;2.20;;
28427;SDS011;15662;49.128;8.520;2023-03-24T03:37:53;2.20;;;2.05;;
28427;SDS011;15662;49.128;8.520;2023-03-24T03:40:35;2.30;;;2.10;;
28427;SDS011;15662;49.128;8.520;2023-03-24T03:43:16;4.38;;;2.13;;
28427;SDS011;15662;49.128;8.520;2023-03-24T03:45:45;1.90;;;1.80;;
28427;SDS011;15662;49.128;8.520;2023-03-24T03:48:14;2.80;;;2.58;;
28427;SDS011;15662;49.128;8.520;2023-03-24T03:50:44;2.20;;;2.00;;
28427;SDS011;15662;49.128;8.520;2023-03-24T03:53:14;3.72;;;2.60;;
28427;SDS011;15662;49.128;8.520;2023-03-24T03:55:46;2.20;;;2.00;;
28427;SDS011;15662;49.128;8.520;2023-03-24T03:58:15;3.25;;;1.98;;
28427;SDS011;15662;49.128;8.520;2023-03-24T04:00:53;3.00;;;2.10;;
28427;SDS011;15662;49.128;8.520;2023-03-24T04:10:36;2.15;;;1.98;;
28427;SDS011;15662;49.128;8.520;2023-03-24T04:17:10;2.97;;;1.95;;
28427;SDS011;15662;49.128;8.520;2023-03-24T04:24:09;2.28;;;2.05;;
28427;SDS011;15662;49.128;8.520;2023-03-24T04:27:00;3.38;;;2.03;;
28427;SDS011;15662;49.128;8.520;2023-03-24T04:33:13;2.70;;;2.50;;
28427;SDS011;15662;49.128;8.520;2023-03-24T04:35:52;2.33;;;2.22;;
28427;SDS011;15662;49.128;8.520;2023-03-24T04:38:44;2.72;;;2.53;;
28427;SDS011;15662;49.128;8.520;2023-03-24T04:41:29;3.00;;;2.75;;
28427;SDS011;15662;49.128;8.520;2023-03-24T04:44:09;2.97;;;2.65;;
28427;SDS011;15662;49.128;8.520;2023-03-24T04:46:53;3.90;;;2.70;;
28427;SDS011;15662;49.128;8.520;2023-03-24T04:49:24;2.90;;;2.70;;
28427;SDS011;15662;49.128;8.520;2023-03-24T04:51:53;3.10;;;2.80;;
28427;SDS011;15662;49.128;8.520;2023-03-24T04:54:25;3.67;;;2.65;;
28427;SDS011;15662;49.128;8.520;2023-03-24T04:57:01;3.08;;;2.75;;
28427;SDS011;15662;49.128;8.520;2023-03-24T04:59:39;2.92;;;2.72;;
28427;SDS011;15662;49.128;8.520;2023-03-24T05:02:07;3.78;;;3.00;;
28427;SDS011;15662;49.128;8.520;2023-03-24T05:04:39;3.45;;;3.15;;
28427;SDS011;15662;49.128;8.520;2023-03-24T05:07:14;3.63;;;2.88;;
28427;SDS011;15662;49.128;8.520;2023-03-24T05:09:46;4.28;;;3.28;;
28427;SDS011;15662;49.128;8.520;2023-03-24T05:12:14;6.18;;;3.53;;
28427;SDS011;15662;49.128;8.520;2023-03-24T05:15:02;3.40;;;3.10;;
28427;SDS011;15662;49.128;8.520;2023-03-24T05:17:31;4.07;;;3.63;;
28427;SDS011;15662;49.128;8.520;2023-03-24T05:19:59;4.65;;;3.30;;
28427;SDS011;15662;49.128;8.520;2023-03-24T05:22:27;3.65;;;3.35;;
28427;SDS011;15662;49.128;8.520;2023-03-24T05:24:55;7.30;;;3.80;;
28427;SDS011;15662;49.128;8.520;2023-03-24T05:27:23;5.20;;;3.40;;
28427;SDS011;15662;49.128;8.520;2023-03-24T05:29:51;4.95;;;3.58;;
28427;SDS011;15662;49.128;8.520;2023-03-24T05:32:23;3.55;;;3.25;;
28427;SDS011;15662;49.128;8.520;2023-03-24T05:34:51;3.85;;;3.55;;
28427;SDS011;15662;49.128;8.520;2023-03-24T05:37:27;4.35;;;3.50;;
28427;SDS011;15662;49.128;8.520;2023-03-24T05:39:56;3.65;;;3.40;;
28427;SDS011;15662;49.128;8.520;2023-03-24T05:42:53;3.80;;;3.50;;
28427;SDS011;15662;49.128;8.520;2023-03-24T05:45:24;4.20;;;3.35;;
28427;SDS011;15662;49.128;8.520;2023-03-24T05:47:52;4.85;;;3.40;;
28427;SDS011;15662;49.128;8.520;2023-03-24T05:50:30;4.07;;;3.60;;
28427;SDS011;15662;49.128;8.520;2023-03-24T05:53:00;3.60;;;3.25;;
28427;SDS011;15662;49.128;8.520;2023-03-24T05:55:51;4.32;;;3.38;;
28427;SDS011;15662;49.128;8.520;2023-03-24T05:58:38;3.58;;;3.28;;
28427;SDS011;15662;49.128;8.520;2023-03-24T06:01:08;4.05;;;3.75;;
28427;SDS011;15662;49.128;8.520;2023-03-24T06:03:37;3.35;;;3.13;;
28427;SDS011;15662;49.128;8.520;2023-03-24T06:06:12;4.50;;;3.75;;
28427;SDS011;15662;49.128;8.520;2023-03-24T06:08:43;3.72;;;3.38;;
28427;SDS011;15662;49.128;8.520;2023-03-24T06:11:12;2.88;;;2.65;;
28427;SDS011;15662;49.128;8.520;2023-03-24T06:13:53;3.40;;;3.10;;
28427;SDS011;15662;49.128;8.520;2023-03-24T06:16:42;4.40;;;4.00;;
28427;SDS011;15662;49.128;8.520;2023-03-24T06:19:13;5.03;;;3.78;;
28427;SDS011;15662;49.128;8.520;2023-03-24T06:21:52;3.60;;;3.17;;
28427;SDS011;15662;49.128;8.520;2023-03-24T06:24:25;4.40;;;3.65;;
28427;SDS011;15662;49.128;8.520;2023-03-24T06:26:59;3.45;;;3.20;;
28427;SDS011;15662;49.128;8.520;2023-03-24T06:29:33;5.80;;;4.20;;
28427;SDS011;15662;49.128;8.520;2023-03-24T06:32:02;5.22;;;4.10;;
28427;SDS011;15662;49.128;8.520;2023-03-24T06:34:43;6.22;;;5.38;;
28427;SDS011;15662;49.128;8.520;2023-03-24T06:37:17;8.18;;;6.20;;
28427;SDS011;15662;49.128;8.520;2023-03-24T06:39:47;5.30;;;4.65;;
28427;SDS011;15662;49.128;8.520;2023-03-24T06:42:21;6.97;;;6.18;;
28427;SDS011;15662;49.128;8.520;2023-03-24T06:44:51;7.57;;;6.03;;
28427;SDS011;15662;49.128;8.520;2023-03-24T06:47:19;6.50;;;4.10;;
28427;SDS011;15662;49.128;8.520;2023-03-24T06:49:47;3.97;;;3.42;;
28427;SDS011;15662;49.128;8.520;2023-03-24T06:52:15;4.03;;;3.40;;
28427;SDS011;15662;49.128;8.520;2023-03-24T06:54:43;5.43;;;2.88;;
28427;SDS011;15662;49.128;8.520;2023-03-24T06:57:11;5.68;;;3.40;;
28427;SDS011;15662;49.128;8.520;2023-03-24T06:59:59;4.22;;;3.35;;
28427;SDS011;15662;49.128;8.520;2023-03-24T07:02:32;3.15;;;2.88;;
28427;SDS011;15662;49.128;8.520;2023-03-24T07:05:03;3.15;;;2.67;;
28427;SDS011;15662;49.128;8.520;2023-03-24T07:07:43;3.17;;;2.97;;
28427;SDS011;15662;49.128;8.520;2023-03-24T07:10:34;2.93;;;2.73;;
28427;SDS011;15662;49.128;8.520;2023-03-24T07:13:06;4.30;;;2.95;;
28427;SDS011;15662;49.128;8.520;2023-03-24T07:15:36;2.80;;;2.35;;
28427;SDS011;15662;49.128;8.520;2023-03-24T07:18:04;2.60;;;2.40;;
28427;SDS011;15662;49.128;8.520;2023-03-24T07:20:44;3.35;;;2.20;;
28427;SDS011;15662;49.128;8.520;2023-03-24T07:23:14;2.60;;;2.40;;
28427;SDS011;15662;49.128;8.520;2023-03-24T07:25:42;2.80;;;2.30;;
28427;SDS011;15662;49.128;8.520;2023-03-24T07:28:31;2.53;;;2.28;;
28427;SDS011;15662;49.128;8.520;2023-03-24T07:31:03;2.75;;;2.25;;
28427;SDS011;15662;49.128;8.520;2023-03-24T07:33:37;2.28;;;2.10;;
28427;SDS011;15662;49.128;8.520;2023-03-24T07:36:05;2.40;;;2.20;;
28427;SDS011;15662;49.128;8.520;2023-03-24T07:38:38;2.22;;;2.13;;
28427;SDS011;15662;49.128;8.520;2023-03-24T07:41:12;1.95;;;1.85;;
28427;SDS011;15662;49.128;8.520;2023-03-24T07:43:49;3.15;;;2.00;;
28427;SDS011;15662;49.128;8.520;2023-03-24T07:46:23;2.60;;;2.05;;
28427;SDS011;15662;49.128;8.520;2023-03-24T07:48:51;2.50;;;2.30;;
28427;SDS011;15662;49.128;8.520;2023-03-24T07:51:19;2.17;;;1.98;;
28427;SDS011;15662;49.128;8.520;2023-03-24T07:53:59;2.53;;;2.15;;
28427;SDS011;15662;49.128;8.520;2023-03-24T07:56:32;2.40;;;2.20;;
28427;SDS011;15662;49.128;8.520;2023-03-24T07:59:00;2.20;;;2.10;;
28427;SDS011;15662;49.128;8.520;2023-03-24T08:01:49;2.65;;;2.40;;
28427;SDS011;15662;49.128;8.520;2023-03-24T08:04:57;1.98;;;1.88;;
28427;SDS011;15662;49.128;8.520;2023-03-24T08:07:37;2.45;;;2.28;;
28427;SDS011;15662;49.128;8.520;2023-03-24T08:10:09;1.90;;;1.80;;
28427;SDS011;15662;49.128;8.520;2023-03-24T08:12:42;2.47;;;2.05;;
28427;SDS011;15662;49.128;8.520;2023-03-24T08:15:10;1.95;;;1.85;;
28427;SDS011;15662;49.128;8.520;2023-03-24T08:17:40;2.03;;;1.92;;
28427;SDS011;15662;49.128;8.520;2023-03-24T08:20:09;2.13;;;1.98;;
28427;SDS011;15662;49.128;8.520;2023-03-24T08:22:42;2.58;;;1.83;;
28427;SDS011;15662;49.128;8.520;2023-03-24T08:25:17;1.95;;;1.63;;
28427;SDS011;15662;49.128;8.520;2023-03-24T08:27:46;1.73;;;1.58;;
28427;SDS011;15662;49.128;8.520;2023-03-24T08:30:32;1.45;;;1.35;;
28427;SDS011;15662;49.128;8.520;2023-03-24T08:33:01;1.60;;;1.50;;
28427;SDS011;15662;49.128;8.520;2023-03-24T08:35:31;1.63;;;1.52;;
28427;SDS011;15662;49.128;8.520;2023-03-24T08:38:06;2.45;;;1.50;;
28427;SDS011;15662;49.128;8.520;2023-03-24T08:40:36;2.58;;;1.95;;
28427;SDS011;15662;49.128;8.520;2023-03-24T08:43:06;1.30;;;1.30;;
28427;SDS011;15662;49.128;8.520;2023-03-24T08:45:39;1.40;;;1.30;;
28427;SDS011;15662;49.128;8.520;2023-03-24T08:48:08;2.17;;;1.38;;
28427;SDS011;15662;49.128;8.520;2023-03-24T08:50:38;1.55;;;1.45;;
28427;SDS011;15662;49.128;8.520;2023-03-24T08:53:08;1.45;;;1.35;;
28427;SDS011;15662;49.128;8.520;2023-03-24T08:55:41;1.42;;;1.30;;
28427;SDS011;15662;49.128;8.520;2023-03-24T08:58:14;1.55;;;1.40;;
28427;SDS011;15662;49.128;8.520;2023-03-24T09:00:47;1.58;;;1.27;;
28427;SDS011;15662;49.128;8.520;2023-03-24T09:03:18;3.00;;;2.80;;
28427;SDS011;15662;49.128;8.520;2023-03-24T09:05:48;1.70;;;1.60;;
28427;SDS011;15662;49.128;8.520;2023-03-24T09:08:17;1.30;;;1.30;;
28427;SDS011;15662;49.128;8.520;2023-03-24T09:10:47;1.50;;;1.40;;
28427;SDS011;15662;49.128;8.520;2023-03-24T09:13:18;1.60;;;1.50;;
28427;SDS011;15662;49.128;8.520;2023-03-24T09:15:48;1.50;;;1.40;;
28427;SDS011;15662;49.128;8.520;2023-03-24T09:18:31;1.35;;;1.23;;
28427;SDS011;15662;49.128;8.520;2023-03-24T09:20:59;1.70;;;1.60;;
28427;SDS011;15662;49.128;8.520;2023-03-24T09:23:27;1.30;;;1.20;;
28427;SDS011;15662;49.128;8.520;2023-03-24T09:25:57;1.30;;;1.20;;
28427;SDS011;15662;49.128;8.520;2023-03-24T09:28:25;1.33;;;1.13;;
28427;SDS011;15662;49.128;8.520;2023-03-24T09:30:59;1.20;;;1.10;;
28427;SDS011;15662;49.128;8.520;2023-03-24T09:33:30;1.60;;;1.27;;
28427;SDS011;15662;49.128;8.520;2023-03-24T09:36:02;1.40;;;1.30;;
28427;SDS011;15662;49.128;8.520;2023-03-24T09:38:31;1.23;;;1.13;;
28427;SDS011;15662;49.128;8.520;2023-03-24T09:41:02;1.40;;;1.30;;
28427;SDS011;15662;49.128;8.520;2023-03-24T09:43:32;1.92;;;1.55;;
28427;SDS011;15662;49.128;8.520;2023-03-24T09:46:20;2.60;;;1.67;;
28427;SDS011;15662;49.128;8.520;2023-03-24T09:49:12;3.20;;;2.90;;
28427;SDS011;15662;49.128;8.520;2023-03-24T09:51:50;3.58;;;2.10;;
28427;SDS011;15662;49.128;8.520;2023-03-24T09:57:26;1.80;;;1.70;;
28427;SDS011;15662;49.128;8.520;2023-03-24T09:59:55;2.47;;;1.70;;
28427;SDS011;15662;49.128;8.520;2023-03-24T10:02:25;1.40;;;1.40;;
28427;SDS011;15662;49.128;8.520;2023-03-24T10:04:58;2.47;;;1.40;;
28427;SDS011;15662;49.128;8.520;2023-03-24T10:07:36;1.40;;;1.30;;
28427;SDS011;15662;49.128;8.520;2023-03-24T10:13:16;1.38;;;1.30;;
28427;SDS011;15662;49.128;8.520;2023-03-24T10:16:05;3.83;;;1.33;;
28427;SDS011;15662;49.128;8.520;2023-03-24T10:18:47;1.50;;;1.40;;
28427;SDS011;15662;49.128;8.520;2023-03-24T10:21:31;1.40;;;1.30;;
28427;SDS011;15662;49.128;8.520;2023-03-24T10:24:25;2.65;;;1.50;;
28427;SDS011;15662;49.128;8.520;2023-03-24T10:27:35;1.65;;;1.48;;
28427;SDS011;15662;49.128;8.520;2023-03-24T10:31:12;1.75;;;1.58;;
28427;SDS011;15662;49.128;8.520;2023-03-24T10:34:03;3.33;;;1.58;;
28427;SDS011;15662;49.128;8.520;2023-03-24T10:36:37;1.95;;;1.20;;
28427;SDS011;15662;49.128;8.520;2023-03-24T10:39:14;1.60;;;1.55;;
28427;SDS011;15662;49.128;8.520;2023-03-24T10:41:50;1.90;;;1.50;;
28427;SDS011;15662;49.128;8.520;2023-03-24T10:44:24;1.85;;;1.60;;
28427;SDS011;15662;49.128;8.520;2023-03-24T10:46:55;1.70;;;1.60;;
28427;SDS011;15662;49.128;8.520;2023-03-24T10:49:28;1.40;;;1.30;;
28427;SDS011;15662;49.128;8.520;2023-03-24T10:52:01;3.00;;;1.80;;
28427;SDS011;15662;49.128;8.520;2023-03-24T10:54:34;2.47;;;1.52;;
28427;SDS011;15662;49.128;8.520;2023-03-24T10:57:03;1.60;;;1.50;;
28427;SDS011;15662;49.128;8.520;2023-03-24T11:02:23;3.00;;;1.90;;
28427;SDS011;15662;49.128;8.520;2023-03-24T11:05:01;1.90;;;1.60;;
28427;SDS011;15662;49.128;8.520;2023-03-24T11:07:48;1.77;;;1.63;;
28427;SDS011;15662;49.128;8.520;2023-03-24T11:10:22;2.03;;;1.80;;
28427;SDS011;15662;49.128;8.520;2023-03-24T11:17:59;1.65;;;1.55;;
28427;SDS011;15662;49.128;8.520;2023-03-24T11:20:53;1.80;;;1.70;;
28427;SDS011;15662;49.128;8.520;2023-03-24T11:26:06;1.70;;;1.60;;
28427;SDS011;15662;49.128;8.520;2023-03-24T11:28:50;1.83;;;1.73;;
28427;SDS011;15662;49.128;8.520;2023-03-24T11:31:28;3.53;;;1.45;;
28427;SDS011;15662;49.128;8.520;2023-03-24T11:34:05;1.48;;;1.38;;
28427;SDS011;15662;49.128;8.520;2023-03-24T11:36:58;1.27;;;1.20;;
28427;SDS011;15662;49.128;8.520;2023-03-24T11:39:42;1.33;;;1.23;;
28427;SDS011;15662;49.128;8.520;2023-03-24T11:42:13;1.60;;;1.35;;
28427;SDS011;15662;49.128;8.520;2023-03-24T11:44:48;1.83;;;0.90;;
28427;SDS011;15662;49.128;8.520;2023-03-24T11:52:48;1.58;;;0.80;;
28427;SDS011;15662;49.128;8.520;2023-03-24T11:55:53;2.30;;;0.80;;
28427;SDS011;15662;49.128;8.520;2023-03-24T11:58:37;1.83;;;0.60;;
28427;SDS011;15662;49.128;8.520;2023-03-24T12:16:04;1.48;;;0.70;;
28427;SDS011;15662;49.128;8.520;2023-03-24T12:21:35;3.10;;;0.93;;
28427;SDS011;15662;49.128;8.520;2023-03-24T12:30:19;2.80;;;0.88;;
28427;SDS011;15662;49.128;8.520;2023-03-24T12:39:30;1.83;;;0.80;;
28427;SDS011;15662;49.128;8.520;2023-03-24T12:42:08;0.85;;;0.55;;
28427;SDS011;15662;49.128;8.520;2023-03-24T12:47:25;1.05;;;0.80;;
28427;SDS011;15662;49.128;8.520;2023-03-24T12:53:34;1.17;;;0.70;;
28427;SDS011;15662;49.128;8.520;2023-03-24T12:56:22;2.78;;;0.80;;
28427;SDS011;15662;49.128;8.520;2023-03-24T12:59:09;2.47;;;0.70;;
28427;SDS011;15662;49.128;8.520;2023-03-24T13:01:50;3.08;;;0.95;;
28427;SDS011;15662;49.128;8.520;2023-03-24T13:04:43;2.80;;;0.90;;
28427;SDS011;15662;49.128;8.520;2023-03-24T13:07:16;1.55;;;0.80;;
28427;SDS011;15662;49.128;8.520;2023-03-24T13:12:47;3.92;;;0.93;;
28427;SDS011;15662;49.128;8.520;2023-03-24T13:18:30;2.72;;;0.80;;
28427;SDS011;15662;49.128;8.520;2023-03-24T13:21:16;1.43;;;0.90;;
28427;SDS011;15662;49.128;8.520;2023-03-24T13:37:37;2.90;;;0.90;;
28427;SDS011;15662;49.128;8.520;2023-03-24T13:40:24;3.95;;;1.27;;
28427;SDS011;15662;49.128;8.520;2023-03-24T13:42:55;3.75;;;1.13;;
28427;SDS011;15662;49.128;8.520;2023-03-24T13:45:34;2.05;;;1.00;;
28427;SDS011;15662;49.128;8.520;2023-03-24T13:50:40;1.80;;;0.88;;
28427;SDS011;15662;49.128;8.520;2023-03-24T13:53:31;2.50;;;1.08;;
28427;SDS011;15662;49.128;8.520;2023-03-24T13:56:07;2.13;;;1.05;;
28427;SDS011;15662;49.128;8.520;2023-03-24T13:58:46;1.95;;;0.95;;
28427;SDS011;15662;49.128;8.520;2023-03-24T14:01:40;2.30;;;0.90;;
28427;SDS011;15662;49.128;8.520;2023-03-24T14:06:46;2.17;;;1.05;;
28427;SDS011;15662;49.128;8.520;2023-03-24T14:14:25;1.67;;;0.90;;
28427;SDS011;15662;49.128;8.520;2023-03-24T14:22:32;3.15;;;1.27;;
28427;SDS011;15662;49.128;8.520;2023-03-24T14:25:03;2.83;;;1.08;;
28427;SDS011;15662;49.128;8.520;2023-03-24T14:27:45;2.95;;;1.27;;
28427;SDS011;15662;49.128;8.520;2023-03-24T14:30:17;3.13;;;1.15;;
28427;SDS011;15662;49.128;8.520;2023-03-24T14:32:54;2.10;;;1.00;;
28427;SDS011;15662;49.128;8.520;2023-03-24T14:41:28;2.78;;;1.13;;
28427;SDS011;15662;49.128;8.520;2023-03-24T14:54:15;3.65;;;1.73;;
28427;SDS011;15662;49.128;8.520;2023-03-24T14:56:50;2.15;;;1.52;;
28427;SDS011;15662;49.128;8.520;2023-03-24T14:59:35;2.10;;;1.00;;
28427;SDS011;15662;49.128;8.520;2023-03-24T15:02:34;2.53;;;1.13;;
28427;SDS011;15662;49.128;8.520;2023-03-24T15:05:47;2.92;;;1.15;;
28427;SDS011;15662;49.128;8.520;2023-03-24T15:08:16;3.47;;;1.10;;
28427;SDS011;15662;49.128;8.520;2023-03-24T15:16:49;4.30;;;1.25;;
28427;SDS011;15662;49.128;8.520;2023-03-24T15:19:26;1.67;;;0.98;;
28427;SDS011;15662;49.128;8.520;2023-03-24T15:22:04;3.08;;;1.20;;
28427;SDS011;15662;49.128;8.520;2023-03-24T15:24:39;1.73;;;0.88;;
28427;SDS011;15662;49.128;8.520;2023-03-24T15:27:13;1.30;;;0.95;;
28427;SDS011;15662;49.128;8.520;2023-03-24T15:29:55;2.08;;;0.80;;
28427;SDS011;15662;49.128;8.520;2023-03-24T15:35:02;1.50;;;1.30;;
28427;SDS011;15662;49.128;8.520;2023-03-24T15:37:39;2.65;;;1.40;;
28427;SDS011;15662;49.128;8.520;2023-03-24T15:43:01;1.02;;;0.90;;
28427;SDS011;15662;49.128;8.520;2023-03-24T15:45:48;0.80;;;0.80;;
28427;SDS011;15662;49.128;8.520;2023-03-24T15:48:37;0.60;;;0.60;;
28427;SDS011;15662;49.128;8.520;2023-03-24T15:51:06;0.88;;;0.80;;
28427;SDS011;15662;49.128;8.520;2023-03-24T15:53:41;1.27;;;0.82;;
28427;SDS011;15662;49.128;8.520;2023-03-24T15:56:28;1.25;;;0.80;;
28427;SDS011;15662;49.128;8.520;2023-03-24T16:01:32;0.80;;;0.70;;
28427;SDS011;15662;49.128;8.520;2023-03-24T16:04:05;0.70;;;0.70;;
28427;SDS011;15662;49.128;8.520;2023-03-24T16:06:51;1.58;;;0.80;;
28427;SDS011;15662;49.128;8.520;2023-03-24T16:09:21;0.77;;;0.70;;
28427;SDS011;15662;49.128;8.520;2023-03-24T16:11:53;2.55;;;1.00;;
28427;SDS011;15662;49.128;8.520;2023-03-24T16:14:26;1.02;;;0.80;;
28427;SDS011;15662;49.128;8.520;2023-03-24T16:16:59;0.80;;;0.80;;
28427;SDS011;15662;49.128;8.520;2023-03-24T16:19:30;1.00;;;0.80;;
28427;SDS011;15662;49.128;8.520;2023-03-24T16:21:58;1.23;;;1.00;;
28427;SDS011;15662;49.128;8.520;2023-03-24T16:24:26;1.48;;;1.20;;
28427;SDS011;15662;49.128;8.520;2023-03-24T16:26:54;2.00;;;1.45;;
28427;SDS011;15662;49.128;8.520;2023-03-24T16:29:42;1.08;;;1.05;;
28427;SDS011;15662;49.128;8.520;2023-03-24T16:32:27;1.52;;;1.40;;
28427;SDS011;15662;49.128;8.520;2023-03-24T16:34:57;0.90;;;0.90;;
28427;SDS011;15662;49.128;8.520;2023-03-24T16:37:25;0.90;;;0.90;;
28427;SDS011;15662;49.128;8.520;2023-03-24T16:39:53;0.98;;;0.98;;
28427;SDS011;15662;49.128;8.520;2023-03-24T16:42:21;0.60;;;0.60;;
28427;SDS011;15662;49.128;8.520;2023-03-24T16:44:48;3.97;;;0.70;;
28427;SDS011;15662;49.128;8.520;2023-03-24T16:47:16;1.00;;;0.68;;
28427;SDS011;15662;49.128;8.520;2023-03-24T16:49:44;2.40;;;1.13;;
28427;SDS011;15662;49.128;8.520;2023-03-24T16:52:12;1.10;;;0.80;;
28427;SDS011;15662;49.128;8.520;2023-03-24T16:54:40;0.93;;;0.93;;
28427;SDS011;15662;49.128;8.520;2023-03-24T16:57:08;1.98;;;0.80;;
28427;SDS011;15662;49.128;8.520;2023-03-24T16:59:36;1.23;;;0.88;;
28427;SDS011;15662;49.128;8.520;2023-03-24T17:02:04;1.42;;;0.80;;
28427;SDS011;15662;49.128;8.520;2023-03-24T17:04:36;1.00;;;0.88;;
28427;SDS011;15662;49.128;8.520;2023-03-24T17:07:04;1.20;;;1.10;;
28427;SDS011;15662;49.128;8.520;2023-03-24T17:09:34;3.25;;;1.00;;
28427;SDS011;15662;49.128;8.520;2023-03-24T17:12:02;3.20;;;2.90;;
28427;SDS011;15662;49.128;8.520;2023-03-24T17:14:30;2.95;;;2.67;;
28427;SDS011;15662;49.128;8.520;2023-03-24T17:16:58;1.60;;;1.50;;
28427;SDS011;15662;49.128;8.520;2023-03-24T17:19:29;2.40;;;1.48;;
28427;SDS011;15662;49.128;8.520;2023-03-24T17:22:00;1.30;;;1.20;;
28427;SDS011;15662;49.128;8.520;2023-03-24T17:24:32;1.73;;;1.10;;
28427;SDS011;15662;49.128;8.520;2023-03-24T17:27:08;1.67;;;0.98;;
28427;SDS011;15662;49.128;8.520;2023-03-24T17:29:40;3.72;;;0.82;;
28427;SDS011;15662;49.128;8.520;2023-03-24T17:32:08;0.95;;;0.73;;
28427;SDS011;15662;49.128;8.520;2023-03-24T17:34:36;0.80;;;0.80;;
28427;SDS011;15662;49.128;8.520;2023-03-24T17:37:04;0.70;;;0.70;;
28427;SDS011;15662;49.128;8.520;2023-03-24T17:39:32;0.90;;;0.90;;
28427;SDS011;15662;49.128;8.520;2023-03-24T17:42:00;1.23;;;1.13;;
28427;SDS011;15662;49.128;8.520;2023-03-24T17:44:28;0.77;;;0.77;;
28427;SDS011;15662;49.128;8.520;2023-03-24T17:46:56;1.10;;;1.10;;
28427;SDS011;15662;49.128;8.520;2023-03-24T17:49:27;1.17;;;0.85;;
28427;SDS011;15662;49.128;8.520;2023-03-24T17:51:54;0.80;;;0.80;;
28427;SDS011;15662;49.128;8.520;2023-03-24T17:54:23;1.42;;;0.90;;
28427;SDS011;15662;49.128;8.520;2023-03-24T17:56:53;2.50;;;1.23;;
28427;SDS011;15662;49.128;8.520;2023-03-24T17:59:21;4.93;;;1.20;;
28427;SDS011;15662;49.128;8.520;2023-03-24T18:01:49;1.13;;;1.05;;
28427;SDS011;15662;49.128;8.520;2023-03-24T18:04:17;2.72;;;1.92;;
28427;SDS011;15662;49.128;8.520;2023-03-24T18:06:48;1.70;;;1.45;;
28427;SDS011;15662;49.128;8.520;2023-03-24T18:09:18;3.17;;;1.60;;
28427;SDS011;15662;49.128;8.520;2023-03-24T18:11:46;1.67;;;1.10;;
28427;SDS011;15662;49.128;8.520;2023-03-24T18:14:14;1.15;;;1.00;;
28427;SDS011;15662;49.128;8.520;2023-03-24T18:16:42;1.10;;;1.00;;
28427;SDS011;15662;49.128;8.520;2023-03-24T18:19:10;1.42;;;1.30;;
28427;SDS011;15662;49.128;8.520;2023-03-24T18:21:38;0.98;;;0.98;;
28427;SDS011;15662;49.128;8.520;2023-03-24T18:24:06;1.27;;;1.27;;
28427;SDS011;15662;49.128;8.520;2023-03-24T18:26:35;1.52;;;1.25;;
28427;SDS011;15662;49.128;8.520;2023-03-24T18:29:03;1.27;;;1.17;;
28427;SDS011;15662;49.128;8.520;2023-03-24T18:31:32;1.42;;;1.40;;
28427;SDS011;15662;49.128;8.520;2023-03-24T18:34:00;1.40;;;1.30;;